sensor_id;sensor_type;location;lat;lon;timestamp;pressure;altitude;pressure_sealevel;temperature;humidity
50590;BME280;36547;50.514;30.840;2023-11-19T00:00:21;100769.78;;;0.07;68.52
50590;BME280;36547;50.514;30.840;2023-11-19T00:01:25;100761.95;;;0.06;68.37
50590;BME280;36547;50.514;30.840;2023-11-19T00:02:29;100770.66;;;0.08;68.40
50590;BME280;36547;50.514;30.840;2023-11-19T00:03:39;100762.81;;;0.06;68.43
50590;BME280;36547;50.514;30.840;2023-11-19T00:04:45;100760.22;;;0.11;68.42
50590;BME280;36547;50.514;30.840;2023-11-19T00:05:48;100764.57;;;0.10;68.22
50590;BME280;36547;50.514;30.840;2023-11-19T00:06:53;100760.22;;;0.11;68.21
50590;BME280;36547;50.514;30.840;2023-11-19T00:07:59;100764.56;;;0.07;68.18
50590;BME280;36547;50.514;30.840;2023-11-19T00:09:10;100763.69;;;0.07;68.29
50590;BME280;36547;50.514;30.840;2023-11-19T00:10:16;100754.11;;;0.09;68.24
50590;BME280;36547;50.514;30.840;2023-11-19T00:11:22;100760.20;;;0.08;68.33
50590;BME280;36547;50.514;30.840;2023-11-19T00:12:28;100768.05;;;0.08;68.34
50590;BME280;36547;50.514;30.840;2023-11-19T00:13:33;100767.17;;;0.06;68.19
50590;BME280;36547;50.514;30.840;2023-11-19T00:14:40;100756.72;;;0.06;68.16
50590;BME280;36547;50.514;30.840;2023-11-19T00:15:45;100762.81;;;0.05;68.20
50590;BME280;36547;50.514;30.840;2023-11-19T00:16:51;100754.97;;;0.05;68.25
50590;BME280;36547;50.514;30.840;2023-11-19T00:17:54;100761.95;;;0.06;68.17
50590;BME280;36547;50.514;30.840;2023-11-19T00:19:06;100761.08;;;0.05;68.06
50590;BME280;36547;50.514;30.840;2023-11-19T00:20:12;100756.71;;;0.03;67.93
50590;BME280;36547;50.514;30.840;2023-11-19T00:21:22;100758.48;;;0.14;68.05
50590;BME280;36547;50.514;30.840;2023-11-19T00:22:24;100762.83;;;0.00;68.15
50590;BME280;36547;50.514;30.840;2023-11-19T00:23:26;100765.44;;;-0.02;68.15
50590;BME280;36547;50.514;30.840;2023-11-19T00:24:29;100763.70;;;-0.03;68.12
50590;BME280;36547;50.514;30.840;2023-11-19T00:25:31;100766.31;;;-0.01;68.29
50590;BME280;36547;50.514;30.840;2023-11-19T00:26:34;100763.67;;;0.00;68.45
50590;BME280;36547;50.514;30.840;2023-11-19T00:27:36;100768.03;;;0.02;68.58
50590;BME280;36547;50.514;30.840;2023-11-19T00:28:39;100767.16;;;0.03;68.49
50590;BME280;36547;50.514;30.840;2023-11-19T00:29:41;100761.94;;;0.03;68.37
50590;BME280;36547;50.514;30.840;2023-11-19T00:30:43;100766.28;;;0.02;68.32
50590;BME280;36547;50.514;30.840;2023-11-19T00:31:46;100760.20;;;0.05;68.40
50590;BME280;36547;50.514;30.840;2023-11-19T00:32:48;100763.69;;;0.05;68.54
50590;BME280;36547;50.514;30.840;2023-11-19T00:33:50;100765.42;;;0.06;68.45
50590;BME280;36547;50.514;30.840;2023-11-19T00:34:53;100756.72;;;0.07;68.31
50590;BME280;36547;50.514;30.840;2023-11-19T00:35:55;100758.47;;;0.07;68.23
50590;BME280;36547;50.514;30.840;2023-11-19T00:36:58;100754.11;;;0.06;68.32
50590;BME280;36547;50.514;30.840;2023-11-19T00:38:01;100753.23;;;0.07;68.32
50590;BME280;36547;50.514;30.840;2023-11-19T00:39:03;100749.76;;;0.08;68.33
50590;BME280;36547;50.514;30.840;2023-11-19T00:40:07;100752.37;;;0.08;68.16
50590;BME280;36547;50.514;30.840;2023-11-19T00:41:09;100748.89;;;0.07;68.05
50590;BME280;36547;50.514;30.840;2023-11-19T00:42:12;100763.69;;;0.07;68.22
50590;BME280;36547;50.514;30.840;2023-11-19T00:43:14;100753.23;;;0.07;68.34
50590;BME280;36547;50.514;30.840;2023-11-19T00:44:16;100759.34;;;0.07;68.46
50590;BME280;36547;50.514;30.840;2023-11-19T00:45:18;100756.73;;;0.09;68.40
50590;BME280;36547;50.514;30.840;2023-11-19T00:46:21;100756.72;;;0.07;68.15
50590;BME280;36547;50.514;30.840;2023-11-19T00:47:23;100757.59;;;0.08;68.12
50590;BME280;36547;50.514;30.840;2023-11-19T00:48:25;100756.72;;;0.06;68.08
50590;BME280;36547;50.514;30.840;2023-11-19T00:49:28;100754.97;;;0.05;68.08
50590;BME280;36547;50.514;30.840;2023-11-19T00:50:31;100758.46;;;0.05;68.08
50590;BME280;36547;50.514;30.840;2023-11-19T00:51:35;100748.87;;;0.04;68.08
50590;BME280;36547;50.514;30.840;2023-11-19T00:52:38;100759.33;;;0.06;68.15
50590;BME280;36547;50.514;30.840;2023-11-19T00:53:41;100754.97;;;0.05;68.11
50590;BME280;36547;50.514;30.840;2023-11-19T00:54:43;100759.33;;;0.06;68.23
50590;BME280;36547;50.514;30.840;2023-11-19T00:55:46;100761.08;;;0.07;68.32
50590;BME280;36547;50.514;30.840;2023-11-19T00:56:50;100758.47;;;0.07;68.15
50590;BME280;36547;50.514;30.840;2023-11-19T00:57:52;100753.23;;;0.07;68.11
50590;BME280;36547;50.514;30.840;2023-11-19T00:58:54;100757.59;;;0.05;68.11
50590;BME280;36547;50.514;30.840;2023-11-19T00:59:58;100761.06;;;0.02;68.09
50590;BME280;36547;50.514;30.840;2023-11-19T01:01:01;100753.22;;;0.02;68.19
50590;BME280;36547;50.514;30.840;2023-11-19T01:02:03;100756.73;;;-0.01;68.28
50590;BME280;36547;50.514;30.840;2023-11-19T01:03:06;100750.61;;;0.00;68.35
50590;BME280;36547;50.514;30.840;2023-11-19T01:04:09;100752.37;;;-0.02;68.39
50590;BME280;36547;50.514;30.840;2023-11-19T01:05:12;100753.25;;;-0.03;68.15
50590;BME280;36547;50.514;30.840;2023-11-19T01:06:15;100748.02;;;-0.04;68.09
50590;BME280;36547;50.514;30.840;2023-11-19T01:07:17;100746.28;;;-0.04;68.05
50590;BME280;36547;50.514;30.840;2023-11-19T01:09:17;100746.27;;;0.04;68.19
50590;BME280;36547;50.514;30.840;2023-11-19T01:10:19;100740.17;;;-0.06;68.20
50590;BME280;36547;50.514;30.840;2023-11-19T01:11:22;100743.66;;;-0.07;68.24
50590;BME280;36547;50.514;30.840;2023-11-19T01:12:26;100744.52;;;-0.08;68.29
50590;BME280;36547;50.514;30.840;2023-11-19T01:13:28;100743.66;;;-0.07;68.29
50590;BME280;36547;50.514;30.840;2023-11-19T01:14:30;100747.14;;;-0.08;68.35
50590;BME280;36547;50.514;30.840;2023-11-19T01:15:33;100747.12;;;-0.09;68.60
50590;BME280;36547;50.514;30.840;2023-11-19T01:16:36;100744.52;;;-0.08;68.71
50590;BME280;36547;50.514;30.840;2023-11-19T01:17:38;100746.27;;;-0.07;68.77
50590;BME280;36547;50.514;30.840;2023-11-19T01:18:40;100738.44;;;-0.05;68.86
50590;BME280;36547;50.514;30.840;2023-11-19T01:19:42;100742.80;;;-0.03;68.65
50590;BME280;36547;50.514;30.840;2023-11-19T01:20:45;100741.05;;;-0.05;68.71
50590;BME280;36547;50.514;30.840;2023-11-19T01:21:48;100734.95;;;-0.04;68.75
50590;BME280;36547;50.514;30.840;2023-11-19T01:22:51;100728.87;;;-0.03;68.66
50590;BME280;36547;50.514;30.840;2023-11-19T01:23:54;100730.60;;;-0.04;68.80
50590;BME280;36547;50.514;30.840;2023-11-19T01:24:56;100732.34;;;-0.06;68.67
50590;BME280;36547;50.514;30.840;2023-11-19T01:25:58;100729.72;;;-0.07;68.72
50590;BME280;36547;50.514;30.840;2023-11-19T01:27:01;100729.72;;;-0.07;68.87
50590;BME280;36547;50.514;30.840;2023-11-19T01:28:03;100727.11;;;-0.09;68.73
50590;BME280;36547;50.514;30.840;2023-11-19T01:29:06;100727.97;;;-0.11;68.75
50590;BME280;36547;50.514;30.840;2023-11-19T01:30:10;100729.70;;;-0.12;68.83
50590;BME280;36547;50.514;30.840;2023-11-19T01:31:15;100735.80;;;-0.11;69.03
50590;BME280;36547;50.514;30.840;2023-11-19T01:32:17;100721.87;;;-0.12;69.14
50590;BME280;36547;50.514;30.840;2023-11-19T01:33:20;100723.62;;;-0.11;69.08
50590;BME280;36547;50.514;30.840;2023-11-19T01:34:22;100733.20;;;-0.11;69.09
50590;BME280;36547;50.514;30.840;2023-11-19T01:35:25;100721.87;;;-0.12;69.03
50590;BME280;36547;50.514;30.840;2023-11-19T01:36:29;100730.59;;;-0.10;68.95
50590;BME280;36547;50.514;30.840;2023-11-19T01:37:31;100724.48;;;-0.12;68.91
50590;BME280;36547;50.514;30.840;2023-11-19T01:38:35;100723.61;;;-0.14;68.87
50590;BME280;36547;50.514;30.840;2023-11-19T01:39:38;100720.12;;;-0.14;68.88
50590;BME280;36547;50.514;30.840;2023-11-19T01:40:40;100719.28;;;-0.15;68.92
50590;BME280;36547;50.514;30.840;2023-11-19T01:41:43;100721.02;;;-0.18;68.79
50590;BME280;36547;50.514;30.840;2023-11-19T01:42:45;100717.53;;;-0.17;68.89
50590;BME280;36547;50.514;30.840;2023-11-19T01:43:47;100718.41;;;-0.17;68.89
50590;BME280;36547;50.514;30.840;2023-11-19T01:44:58;100717.55;;;-0.16;68.91
50590;BME280;36547;50.514;30.840;2023-11-19T01:46:02;100716.67;;;-0.15;68.81
50590;BME280;36547;50.514;30.840;2023-11-19T01:47:06;100719.28;;;-0.16;68.93
50590;BME280;36547;50.514;30.840;2023-11-19T01:48:08;100713.19;;;-0.17;69.01
50590;BME280;36547;50.514;30.840;2023-11-19T01:49:11;100708.84;;;-0.16;69.06
50590;BME280;36547;50.514;30.840;2023-11-19T01:50:14;100713.16;;;-0.14;69.07
50590;BME280;36547;50.514;30.840;2023-11-19T01:51:16;100707.09;;;-0.16;69.19
50590;BME280;36547;50.514;30.840;2023-11-19T01:52:20;100707.94;;;-0.14;69.05
50590;BME280;36547;50.514;30.840;2023-11-19T01:53:22;100703.62;;;-0.15;69.01
50590;BME280;36547;50.514;30.840;2023-11-19T01:54:25;100708.84;;;-0.16;69.05
50590;BME280;36547;50.514;30.840;2023-11-19T01:55:28;100707.97;;;-0.17;68.97
50590;BME280;36547;50.514;30.840;2023-11-19T01:56:31;100704.48;;;-0.16;69.12
50590;BME280;36547;50.514;30.840;2023-11-19T01:57:35;100707.94;;;-0.14;68.99
50590;BME280;36547;50.514;30.840;2023-11-19T01:58:37;100709.69;;;-0.13;69.04
50590;BME280;36547;50.514;30.840;2023-11-19T01:59:43;100716.65;;;-0.12;69.08
50590;BME280;36547;50.514;30.840;2023-11-19T02:00:46;100713.16;;;-0.14;68.98
50590;BME280;36547;50.514;30.840;2023-11-19T02:01:49;100717.52;;;-0.13;68.90
50590;BME280;36547;50.514;30.840;2023-11-19T02:02:53;100721.00;;;-0.14;68.77
50590;BME280;36547;50.514;30.840;2023-11-19T02:03:57;100712.30;;;-0.14;68.78
50590;BME280;36547;50.514;30.840;2023-11-19T02:04:59;100721.90;;;-0.15;68.71
50590;BME280;36547;50.514;30.840;2023-11-19T02:06:03;100722.73;;;-0.14;68.64
50590;BME280;36547;50.514;30.840;2023-11-19T02:07:05;100719.28;;;-0.15;68.74
50590;BME280;36547;50.514;30.840;2023-11-19T02:08:10;100718.41;;;-0.15;68.79
50590;BME280;36547;50.514;30.840;2023-11-19T02:09:15;100712.30;;;-0.14;68.78
50590;BME280;36547;50.514;30.840;2023-11-19T02:10:17;100713.19;;;-0.17;69.01
50590;BME280;36547;50.514;30.840;2023-11-19T02:11:20;100709.70;;;-0.16;68.98
50590;BME280;36547;50.514;30.840;2023-11-19T02:12:22;100711.45;;;-0.15;68.90
50590;BME280;36547;50.514;30.840;2023-11-19T02:13:25;100709.69;;;-0.13;68.90
50590;BME280;36547;50.514;30.840;2023-11-19T02:14:29;100704.46;;;-0.13;68.98
50590;BME280;36547;50.514;30.840;2023-11-19T02:15:32;100708.81;;;-0.12;69.04
50590;BME280;36547;50.514;30.840;2023-11-19T02:16:34;100709.69;;;-0.10;69.24
50590;BME280;36547;50.514;30.840;2023-11-19T02:17:37;100704.47;;;-0.11;68.92
50590;BME280;36547;50.514;30.840;2023-11-19T02:18:40;100706.20;;;-0.12;68.86
50590;BME280;36547;50.514;30.840;2023-11-19T02:19:42;100700.11;;;-0.11;68.81
50590;BME280;36547;50.514;30.840;2023-11-19T02:20:45;100697.50;;;-0.11;68.76
50590;BME280;36547;50.514;30.840;2023-11-19T02:21:49;100700.98;;;-0.12;68.74
50590;BME280;36547;50.514;30.840;2023-11-19T02:22:51;100704.46;;;-0.13;68.77
50590;BME280;36547;50.514;30.840;2023-11-19T02:23:54;100712.30;;;-0.13;68.77
50590;BME280;36547;50.514;30.840;2023-11-19T02:24:59;100710.55;;;-0.12;68.77
50590;BME280;36547;50.514;30.840;2023-11-19T02:28:42;100704.46;;;-0.13;68.72
50590;BME280;36547;50.514;30.840;2023-11-19T02:29:44;100696.62;;;-0.14;68.89
50590;BME280;36547;50.514;30.840;2023-11-19T02:30:46;100706.20;;;-0.13;68.79
50590;BME280;36547;50.514;30.840;2023-11-19T02:31:48;100702.72;;;-0.14;68.84
50590;BME280;36547;50.514;30.840;2023-11-19T02:34:02;100699.26;;;-0.04;69.13
50590;BME280;36547;50.514;30.840;2023-11-19T02:35:05;100698.39;;;-0.18;69.35
50590;BME280;36547;50.514;30.840;2023-11-19T02:36:10;100708.83;;;-0.18;69.27
50590;BME280;36547;50.514;30.840;2023-11-19T02:37:12;100695.77;;;-0.21;69.34
50590;BME280;36547;50.514;30.840;2023-11-19T02:38:15;100697.52;;;-0.15;69.35
50590;BME280;36547;50.514;30.840;2023-11-19T02:39:17;100699.27;;;-0.16;69.19
50590;BME280;36547;50.514;30.840;2023-11-19T02:40:19;100694.05;;;-0.16;69.07
50590;BME280;36547;50.514;30.840;2023-11-19T02:41:22;100695.78;;;-0.15;69.14
50590;BME280;36547;50.514;30.840;2023-11-19T02:42:24;100698.39;;;-0.15;69.15
50590;BME280;36547;50.514;30.840;2023-11-19T02:43:26;100696.65;;;-0.16;68.94
50590;BME280;36547;50.514;30.840;2023-11-19T02:44:28;100699.27;;;-0.16;68.99
50590;BME280;36547;50.514;30.840;2023-11-19T02:45:31;100701.87;;;-0.16;69.05
50590;BME280;36547;50.514;30.840;2023-11-19T02:46:34;100709.70;;;-0.16;69.09
50590;BME280;36547;50.514;30.840;2023-11-19T02:47:37;100703.61;;;-0.16;69.09
50590;BME280;36547;50.514;30.840;2023-11-19T02:48:41;100696.64;;;-0.17;69.18
50590;BME280;36547;50.514;30.840;2023-11-19T02:49:44;100702.74;;;-0.17;69.21
50590;BME280;36547;50.514;30.840;2023-11-19T02:50:46;100709.70;;;-0.16;69.24
50590;BME280;36547;50.514;30.840;2023-11-19T02:51:49;100701.87;;;-0.17;69.36
50590;BME280;36547;50.514;30.840;2023-11-19T02:52:53;100703.61;;;-0.18;69.48
50590;BME280;36547;50.514;30.840;2023-11-19T02:53:56;100704.48;;;-0.16;69.54
50590;BME280;36547;50.514;30.840;2023-11-19T02:54:58;100699.27;;;-0.16;69.57
50590;BME280;36547;50.514;30.840;2023-11-19T02:56:02;100699.27;;;-0.16;69.42
50590;BME280;36547;50.514;30.840;2023-11-19T02:57:04;100695.78;;;-0.15;69.50
50590;BME280;36547;50.514;30.840;2023-11-19T02:58:07;100692.27;;;-0.14;69.36
50590;BME280;36547;50.514;30.840;2023-11-19T02:59:10;100692.27;;;-0.14;69.14
50590;BME280;36547;50.514;30.840;2023-11-19T03:00:16;100685.34;;;-0.15;69.09
50590;BME280;36547;50.514;30.840;2023-11-19T03:01:25;100681.85;;;-0.02;69.20
50590;BME280;36547;50.514;30.840;2023-11-19T03:02:28;100681.85;;;-0.17;69.15
50590;BME280;36547;50.514;30.840;2023-11-19T03:03:30;100682.73;;;-0.15;69.16
50590;BME280;36547;50.514;30.840;2023-11-19T03:04:34;100689.66;;;-0.14;69.08
50590;BME280;36547;50.514;30.840;2023-11-19T03:05:36;100681.83;;;-0.14;69.09
50590;BME280;36547;50.514;30.840;2023-11-19T03:06:38;100680.95;;;-0.13;69.06
50590;BME280;36547;50.514;30.840;2023-11-19T03:07:44;100678.34;;;-0.13;69.04
50590;BME280;36547;50.514;30.840;2023-11-19T03:08:46;100675.73;;;-0.13;68.85
50590;BME280;36547;50.514;30.840;2023-11-19T03:09:48;100673.12;;;-0.13;68.88
50590;BME280;36547;50.514;30.840;2023-11-19T03:10:51;100663.55;;;-0.12;68.92
50590;BME280;36547;50.514;30.840;2023-11-19T03:11:53;100662.70;;;-0.16;69.02
50590;BME280;36547;50.514;30.840;2023-11-19T03:12:55;100666.19;;;-0.17;69.18
50590;BME280;36547;50.514;30.840;2023-11-19T03:13:58;100666.18;;;-0.18;69.12
50590;BME280;36547;50.514;30.840;2023-11-19T03:15:01;100657.47;;;-0.19;69.19
50590;BME280;36547;50.514;30.840;2023-11-19T03:16:04;100653.99;;;-0.18;69.26
50590;BME280;36547;50.514;30.840;2023-11-19T03:17:08;100658.34;;;-0.18;69.18
50590;BME280;36547;50.514;30.840;2023-11-19T03:18:11;100650.51;;;-0.18;69.22
50590;BME280;36547;50.514;30.840;2023-11-19T03:19:13;100656.61;;;-0.16;69.37
50590;BME280;36547;50.514;30.840;2023-11-19T03:20:18;100650.52;;;-0.17;69.25
50590;BME280;36547;50.514;30.840;2023-11-19T03:21:28;100651.39;;;-0.15;69.19
50590;BME280;36547;50.514;30.840;2023-11-19T03:22:32;100646.16;;;-0.16;69.16
50590;BME280;36547;50.514;30.840;2023-11-19T03:23:36;100650.52;;;-0.17;69.15
50590;BME280;36547;50.514;30.840;2023-11-19T03:24:39;100644.42;;;-0.16;69.19
50590;BME280;36547;50.514;30.840;2023-11-19T03:25:41;100645.29;;;-0.17;69.16
50590;BME280;36547;50.514;30.840;2023-11-19T03:26:49;100635.72;;;-0.18;69.19
50590;BME280;36547;50.514;30.840;2023-11-19T03:27:51;100638.33;;;-0.18;69.14
50590;BME280;36547;50.514;30.840;2023-11-19T03:28:54;100637.45;;;-0.18;69.25
50590;BME280;36547;50.514;30.840;2023-11-19T03:29:57;100640.06;;;-0.17;69.28
50590;BME280;36547;50.514;30.840;2023-11-19T03:30:59;100645.29;;;-0.17;69.34
50590;BME280;36547;50.514;30.840;2023-11-19T03:32:04;100647.03;;;-0.16;69.27
50590;BME280;36547;50.514;30.840;2023-11-19T03:33:06;100647.90;;;-0.17;69.33
50590;BME280;36547;50.514;30.840;2023-11-19T03:34:09;100636.58;;;-0.19;69.05
50590;BME280;36547;50.514;30.840;2023-11-19T03:35:11;100637.45;;;-0.21;69.06
50590;BME280;36547;50.514;30.840;2023-11-19T03:36:14;100634.84;;;-0.23;69.02
50590;BME280;36547;50.514;30.840;2023-11-19T03:37:16;100637.44;;;-0.26;69.18
50590;BME280;36547;50.514;30.840;2023-11-19T03:38:18;100644.41;;;-0.25;69.41
50590;BME280;36547;50.514;30.840;2023-11-19T03:39:20;100643.53;;;-0.24;69.45
50590;BME280;36547;50.514;30.840;2023-11-19T03:40:23;100638.31;;;-0.24;69.31
50590;BME280;36547;50.514;30.840;2023-11-19T03:41:26;100646.15;;;-0.24;69.11
50590;BME280;36547;50.514;30.840;2023-11-19T03:42:29;100652.23;;;-0.28;69.13
50590;BME280;36547;50.514;30.840;2023-11-19T03:43:32;100648.75;;;-0.27;69.29
50590;BME280;36547;50.514;30.840;2023-11-19T03:44:35;100647.00;;;-0.28;69.27
50590;BME280;36547;50.514;30.840;2023-11-19T03:45:38;100652.23;;;-0.26;69.23
50590;BME280;36547;50.514;30.840;2023-11-19T03:46:42;100640.05;;;-0.26;69.28
50590;BME280;36547;50.514;30.840;2023-11-19T03:47:45;100648.75;;;-0.27;69.32
50590;BME280;36547;50.514;30.840;2023-11-19T03:48:48;100643.53;;;-0.27;69.33
50590;BME280;36547;50.514;30.840;2023-11-19T03:49:51;100649.63;;;-0.26;69.28
50590;BME280;36547;50.514;30.840;2023-11-19T03:50:54;100647.02;;;-0.25;69.23
50590;BME280;36547;50.514;30.840;2023-11-19T03:51:56;100645.27;;;-0.26;69.25
50590;BME280;36547;50.514;30.840;2023-11-19T03:52:58;100650.49;;;-0.26;69.01
50590;BME280;36547;50.514;30.840;2023-11-19T03:54:01;100640.92;;;-0.27;69.09
50590;BME280;36547;50.514;30.840;2023-11-19T03:55:03;100638.30;;;-0.27;69.08
50590;BME280;36547;50.514;30.840;2023-11-19T03:56:06;100642.66;;;-0.26;69.14
50590;BME280;36547;50.514;30.840;2023-11-19T03:57:09;100627.86;;;-0.27;69.11
50590;BME280;36547;50.514;30.840;2023-11-19T03:58:11;100640.05;;;-0.26;68.93
50590;BME280;36547;50.514;30.840;2023-11-19T03:59:14;100630.48;;;-0.25;69.00
50590;BME280;36547;50.514;30.840;2023-11-19T04:00:17;100625.25;;;-0.24;69.01
50590;BME280;36547;50.514;30.840;2023-11-19T04:01:20;100638.31;;;-0.24;68.71
50590;BME280;36547;50.514;30.840;2023-11-19T04:02:22;100633.09;;;-0.24;68.58
50590;BME280;36547;50.514;30.840;2023-11-19T04:03:24;100638.31;;;-0.24;68.28
50590;BME280;36547;50.514;30.840;2023-11-19T04:04:28;100643.53;;;-0.24;68.12
50590;BME280;36547;50.514;30.840;2023-11-19T04:05:30;100633.96;;;-0.25;68.20
50590;BME280;36547;50.514;30.840;2023-11-19T04:06:32;100634.83;;;-0.24;67.83
50590;BME280;36547;50.514;30.840;2023-11-19T04:07:34;100631.34;;;-0.28;67.70
50590;BME280;36547;50.514;30.840;2023-11-19T04:08:36;100633.95;;;-0.28;67.87
50590;BME280;36547;50.514;30.840;2023-11-19T04:09:38;100626.98;;;-0.27;67.71
50590;BME280;36547;50.514;30.840;2023-11-19T04:10:42;100632.24;;;-0.29;67.43
50590;BME280;36547;50.514;30.840;2023-11-19T04:11:44;100633.09;;;-0.27;67.51
50590;BME280;36547;50.514;30.840;2023-11-19T04:12:46;100629.61;;;-0.26;67.52
50590;BME280;36547;50.514;30.840;2023-11-19T04:13:49;100627.02;;;-0.29;67.42
50590;BME280;36547;50.514;30.840;2023-11-19T04:14:51;100627.86;;;-0.28;67.45
50590;BME280;36547;50.514;30.840;2023-11-19T04:15:55;100623.51;;;-0.28;67.48
50590;BME280;36547;50.514;30.840;2023-11-19T04:16:58;100616.58;;;-0.29;67.38
50590;BME280;36547;50.514;30.840;2023-11-19T04:18:00;100616.57;;;-0.32;67.08
50590;BME280;36547;50.514;30.840;2023-11-19T04:19:03;100617.44;;;-0.33;66.99
50590;BME280;36547;50.514;30.840;2023-11-19T04:20:07;100618.31;;;-0.32;67.06
50590;BME280;36547;50.514;30.840;2023-11-19T04:21:09;100624.41;;;-0.32;66.99
50590;BME280;36547;50.514;30.840;2023-11-19T04:22:11;100614.83;;;-0.33;66.86
50590;BME280;36547;50.514;30.840;2023-11-19T04:23:13;100620.05;;;-0.33;66.96
50590;BME280;36547;50.514;30.840;2023-11-19T04:24:16;100626.14;;;-0.32;67.01
50590;BME280;36547;50.514;30.840;2023-11-19T04:25:18;100620.05;;;-0.31;67.05
50590;BME280;36547;50.514;30.840;2023-11-19T04:26:20;100618.31;;;-0.32;67.08
50590;BME280;36547;50.514;30.840;2023-11-19T04:27:22;100620.05;;;-0.31;67.02
50590;BME280;36547;50.514;30.840;2023-11-19T04:28:24;100613.95;;;-0.32;66.99
50590;BME280;36547;50.514;30.840;2023-11-19T04:29:26;100614.83;;;-0.31;67.02
50590;BME280;36547;50.514;30.840;2023-11-19T04:30:28;100613.97;;;-0.29;66.90
50590;BME280;36547;50.514;30.840;2023-11-19T04:31:31;100610.48;;;-0.31;66.76
50590;BME280;36547;50.514;30.840;2023-11-19T04:32:34;100607.00;;;-0.33;66.75
50590;BME280;36547;50.514;30.840;2023-11-19T04:33:36;100605.25;;;-0.34;66.95
50590;BME280;36547;50.514;30.840;2023-11-19T04:34:38;100604.38;;;-0.33;67.01
50590;BME280;36547;50.514;30.840;2023-11-19T04:35:40;100603.52;;;-0.32;67.03
50590;BME280;36547;50.514;30.840;2023-11-19T04:36:43;100596.55;;;-0.33;66.88
50590;BME280;36547;50.514;30.840;2023-11-19T04:37:45;100606.13;;;-0.32;66.72
50590;BME280;36547;50.514;30.840;2023-11-19T04:38:48;100610.48;;;-0.34;66.38
50590;BME280;36547;50.514;30.840;2023-11-19T04:39:51;100612.22;;;-0.34;65.81
50590;BME280;36547;50.514;30.840;2023-11-19T04:40:53;100607.86;;;-0.36;65.99
50590;BME280;36547;50.514;30.840;2023-11-19T04:41:55;100617.44;;;-0.33;66.01
50590;BME280;36547;50.514;30.840;2023-11-19T04:42:58;100610.48;;;-0.32;66.03
50590;BME280;36547;50.514;30.840;2023-11-19T04:44:00;100615.70;;;-0.32;65.97
50590;BME280;36547;50.514;30.840;2023-11-19T04:45:03;100614.83;;;-0.31;66.08
50590;BME280;36547;50.514;30.840;2023-11-19T04:46:06;100607.00;;;-0.33;66.04
50590;BME280;36547;50.514;30.840;2023-11-19T04:47:09;100612.22;;;-0.33;66.21
50590;BME280;36547;50.514;30.840;2023-11-19T04:48:12;100615.70;;;-0.34;65.89
50590;BME280;36547;50.514;30.840;2023-11-19T04:49:14;100620.05;;;-0.36;65.69
50590;BME280;36547;50.514;30.840;2023-11-19T04:50:17;100620.91;;;-0.37;65.61
50590;BME280;36547;50.514;30.840;2023-11-19T04:51:20;100620.04;;;-0.38;65.62
50590;BME280;36547;50.514;30.840;2023-11-19T04:52:22;100620.03;;;-0.39;65.63
50590;BME280;36547;50.514;30.840;2023-11-19T04:53:25;100615.69;;;-0.37;65.89
50590;BME280;36547;50.514;30.840;2023-11-19T04:54:27;100616.56;;;-0.37;65.91
50590;BME280;36547;50.514;30.840;2023-11-19T04:55:29;100617.44;;;-0.36;65.82
50590;BME280;36547;50.514;30.840;2023-11-19T04:56:32;100615.69;;;-0.37;65.86
50590;BME280;36547;50.514;30.840;2023-11-19T04:57:34;100620.91;;;-0.37;65.98
50590;BME280;36547;50.514;30.840;2023-11-19T04:58:37;100619.17;;;-0.38;65.94
50590;BME280;36547;50.514;30.840;2023-11-19T04:59:40;100618.30;;;-0.37;65.69
50590;BME280;36547;50.514;30.840;2023-11-19T05:00:43;100624.39;;;-0.38;65.72
50590;BME280;36547;50.514;30.840;2023-11-19T05:01:48;100632.22;;;-0.38;65.65
50590;BME280;36547;50.514;30.840;2023-11-19T05:02:51;100627.01;;;-0.35;65.71
50590;BME280;36547;50.514;30.840;2023-11-19T05:03:53;100624.39;;;-0.37;65.47
50590;BME280;36547;50.514;30.840;2023-11-19T05:04:57;100633.09;;;-0.36;65.17
50590;BME280;36547;50.514;30.840;2023-11-19T05:05:59;100633.97;;;-0.37;65.19
50590;BME280;36547;50.514;30.840;2023-11-19T05:07:01;100624.39;;;-0.38;65.18
50590;BME280;36547;50.514;30.840;2023-11-19T05:08:04;100629.61;;;-0.38;65.17
50590;BME280;36547;50.514;30.840;2023-11-19T05:09:06;100618.30;;;-0.40;65.06
50590;BME280;36547;50.514;30.840;2023-11-19T05:10:09;100631.34;;;-0.40;64.88
50590;BME280;36547;50.514;30.840;2023-11-19T05:11:11;100635.70;;;-0.41;64.88
50590;BME280;36547;50.514;30.840;2023-11-19T05:12:14;100624.38;;;-0.41;64.79
50590;BME280;36547;50.514;30.840;2023-11-19T05:13:16;100634.84;;;-0.44;64.69
50590;BME280;36547;50.514;30.840;2023-11-19T05:14:18;100632.23;;;-0.44;64.64
50590;BME280;36547;50.514;30.840;2023-11-19T05:15:20;100625.27;;;-0.45;64.58
50590;BME280;36547;50.514;30.840;2023-11-19T05:16:22;100628.75;;;-0.46;64.59
50590;BME280;36547;50.514;30.840;2023-11-19T05:17:25;100624.38;;;-0.43;64.65
50590;BME280;36547;50.514;30.840;2023-11-19T05:18:27;100622.64;;;-0.42;64.72
50590;BME280;36547;50.514;30.840;2023-11-19T05:19:29;100611.33;;;-0.41;64.92
50590;BME280;36547;50.514;30.840;2023-11-19T05:20:31;100611.33;;;-0.43;64.72
50590;BME280;36547;50.514;30.840;2023-11-19T05:21:33;100613.06;;;-0.43;64.73
50590;BME280;36547;50.514;30.840;2023-11-19T05:22:36;100615.67;;;-0.43;64.69
50590;BME280;36547;50.514;30.840;2023-11-19T05:23:38;100617.44;;;-0.45;64.79
50590;BME280;36547;50.514;30.840;2023-11-19T05:24:41;100611.35;;;-0.46;65.02
50590;BME280;36547;50.514;30.840;2023-11-19T05:25:43;100610.48;;;-0.45;65.28
50590;BME280;36547;50.514;30.840;2023-11-19T05:26:46;100609.62;;;-0.44;65.23
50590;BME280;36547;50.514;30.840;2023-11-19T05:27:49;100608.72;;;-0.43;65.20
50590;BME280;36547;50.514;30.840;2023-11-19T05:28:51;100608.75;;;-0.44;65.18
50590;BME280;36547;50.514;30.840;2023-11-19T05:29:53;100604.39;;;-0.45;65.28
50590;BME280;36547;50.514;30.840;2023-11-19T05:30:56;100605.23;;;-0.43;65.28